Illinois — WYQ3689 — position and weather

sailwx.info

Track history (hours):
 
Tides and Currents Weather Stations Pressure Air Temp Water Temp Dewpoint Dewpoint Depression Visibility Wind Speed Wind Dir Waves Ship Positions

Illinois

Owner: Great Lakes Dredge & Dock Company, OAK BROOK, IL. More information available from US FCC via Universal Licensing System and Coast Guard Vessel Documentation Center.

Last reported at 2016-Jul-01 18:33 UTC. Time now 2016-Jul-01 19:02 UTC.
Position N 31°59' W 080°45'.

; draft 3 m.

Type: Other ship. MMSI: 366796250.

Date/timePositionNaut miles runAvg speedWind from/ knotsBaromVisibWave heightAir tempDewpointWater temp
2016-Jul-01 18:33N 31°59' W 080°45'0 0.0
2016-Jul-01 17:33N 31°59' W 080°45'0 0.0
2016-Jul-01 16:33N 31°59' W 080°45'0 0.0
2016-Jul-01 15:33N 31°59' W 080°45'0 0.0
2016-Jul-01 14:33N 31°59' W 080°45'0 0.0
2016-Jul-01 13:33N 31°59' W 080°45'0 0.0
2016-Jul-01 12:33N 31°59' W 080°45'0 0.0
2016-Jul-01 11:33N 31°59' W 080°45'0 0.0
2016-Jul-01 10:33N 31°59' W 080°45'0 0.0
2016-Jul-01 09:33N 31°59' W 080°45'0 0.0
2016-Jul-01 08:33N 31°59' W 080°45'0 0.0
2016-Jul-01 07:33N 31°59' W 080°45'0 0.0
2016-Jul-01 06:33N 31°59' W 080°45'0 0.0
2016-Jul-01 05:33N 31°59' W 080°45'0 0.0
2016-Jul-01 04:33N 31°59' W 080°45'0 0.0
2016-Jul-01 03:33N 31°59' W 080°45'0 0.0
2016-Jul-01 02:33N 31°59' W 080°45'0 0.0
2016-Jul-01 01:33N 31°59' W 080°45'0 0.0
2016-Jul-01 00:14N 31°59' W 080°45'0 0.0
2016-Jun-30 23:33N 31°59' W 080°45'0 0.0
2016-Jun-30 22:33N 31°59' W 080°45'0 0.0
2016-Jun-30 21:33N 31°59' W 080°45'0 0.0
2016-Jun-30 20:33N 31°59' W 080°45'0 0.0
2016-Jun-30 19:33N 31°59' W 080°45'0 0.0
2016-Jun-30 18:33N 31°59' W 080°45'0 0.0
2016-Jun-30 17:33N 31°59' W 080°45'0 0.0
2016-Jun-30 16:32N 31°59' W 080°45'0 0.0
2016-Jun-30 15:32N 31°59' W 080°45'0 0.0
2016-Jun-30 14:33N 31°59' W 080°45'0 0.0
2016-Jun-30 13:33N 31°59' W 080°45'0 0.0
2016-Jun-30 12:23N 31°59' W 080°45'0 0.0
2016-Jun-30 11:23N 31°59' W 080°45'0 0.0
2016-Jun-30 10:29N 31°59' W 080°45'0 0.0
2016-Jun-30 09:17N 31°59' W 080°45'0 0.0
2016-Jun-30 08:29N 31°59' W 080°45'0 0.0
2016-Jun-30 07:23N 31°59' W 080°45'0 0.0
2016-Jun-30 06:11N 31°59' W 080°45'0 0.0
2016-Jun-30 05:29N 31°59' W 080°45'0 0.0
2016-Jun-30 04:29N 31°59' W 080°45'0 0.0
2016-Jun-30 03:23N 31°59' W 080°45'0 0.0
2016-Jun-30 02:29N 31°59' W 080°45'0 0.0
2016-Jun-30 01:29N 31°59' W 080°45'0 0.0
2016-Jun-30 00:29N 31°59' W 080°45'0 0.0
2016-Jun-29 23:29N 31°59' W 080°45'0 0.1
2016-Jun-29 22:29N 31°59' W 080°45'0 0.0
2016-Jun-29 21:17N 31°59' W 080°45'0 0.0
2016-Jun-29 20:23N 31°59' W 080°45'0 0.0
2016-Jun-29 19:23N 31°59' W 080°45'0 0.0
2016-Jun-29 18:05N 31°59' W 080°45'0 0.0
2016-Jun-29 17:29N 31°59' W 080°45'0 0.0
2016-Jun-29 16:23N 31°59' W 080°45'0 0.0
2016-Jun-29 15:23N 31°59' W 080°45'0 0.0
2016-Jun-29 14:17N 31°59' W 080°45'0 0.0
2016-Jun-29 13:29N 31°59' W 080°45'0 0.0
2016-Jun-29 12:11N 31°59' W 080°45'0 0.0
2016-Jun-29 11:29N 31°59' W 080°45'0 0.0
2016-Jun-29 09:17N 31°59' W 080°45'0 0.0
2016-Jun-29 03:29N 31°59' W 080°45'0 0.0
2016-Jun-28 21:17N 31°59' W 080°45'3 4.0
2016-Jun-28 20:33N 32°01' W 080°48'3 3.4
2016-Jun-28 19:33N 32°01' W 080°52'1 0.9
2016-Jun-28 18:29N 32°01' W 080°53'0 0.0
2016-Jun-28 17:29N 32°01' W 080°53'0 0.0
2016-Jun-28 16:29N 32°01' W 080°53'0 0.0
2016-Jun-28 15:29N 32°01' W 080°53'0 0.0
2016-Jun-28 14:23N 32°01' W 080°53'0 0.0
2016-Jun-28 13:29N 32°01' W 080°53'0 0.0
2016-Jun-28 12:29N 32°01' W 080°53'0 0.0
2016-Jun-28 11:29N 32°01' W 080°53'  
2016-Jun-24 19:29N 32°01' W 080°53'0 0.0
2016-Jun-24 17:33N 32°01' W 080°53'2 1.4
2016-Jun-24 16:05N 32°02' W 080°51'0 0.5
2016-Jun-24 15:30N 32°02' W 080°51'0 0.3
2016-Jun-24 14:30N 32°02' W 080°51'3 3.6
2016-Jun-24 13:33N 32°00' W 080°48'4 4.1
2016-Jun-24 12:33N 32°00' W 080°43'5 4.8
2016-Jun-24 11:32N 32°03' W 080°38'4 4.5
2016-Jun-24 10:33N 32°04' W 080°33'128 4.3
2016-Jun-23 04:31N 33°16' W 078°27'96 3.0
2016-Jun-21 20:12N 34°04' W 076°47'  
Track history (hours):
 
Tides and Currents Weather Stations Pressure Air Temp Water Temp Dewpoint Dewpoint Depression Visibility Wind Speed Wind Dir Waves Ship Positions

Illinois

Owner: Great Lakes Dredge & Dock Company, OAK BROOK, IL. More information available from US FCC via Universal Licensing System and Coast Guard Vessel Documentation Center.

Last reported at 2016-Jul-01 18:33 UTC. Time now 2016-Jul-01 19:02 UTC.
Position N 31°59' W 080°45'.

; draft 3 m.

Type: Other ship. MMSI: 366796250.

Date/timePositionNaut miles runAvg speedWind from/ knotsBaromVisibWave heightAir tempDewpointWater temp
2016-Jul-01 18:33N 31°59' W 080°45'0 0.0
2016-Jul-01 17:33N 31°59' W 080°45'0 0.0
2016-Jul-01 16:33N 31°59' W 080°45'0 0.0
2016-Jul-01 15:33N 31°59' W 080°45'0 0.0
2016-Jul-01 14:33N 31°59' W 080°45'0 0.0
2016-Jul-01 13:33N 31°59' W 080°45'0 0.0
2016-Jul-01 12:33N 31°59' W 080°45'0 0.0
2016-Jul-01 11:33N 31°59' W 080°45'0 0.0
2016-Jul-01 10:33N 31°59' W 080°45'0 0.0
2016-Jul-01 09:33N 31°59' W 080°45'0 0.0
2016-Jul-01 08:33N 31°59' W 080°45'0 0.0
2016-Jul-01 07:33N 31°59' W 080°45'0 0.0
2016-Jul-01 06:33N 31°59' W 080°45'0 0.0
2016-Jul-01 05:33N 31°59' W 080°45'0 0.0
2016-Jul-01 04:33N 31°59' W 080°45'0 0.0
2016-Jul-01 03:33N 31°59' W 080°45'0 0.0
2016-Jul-01 02:33N 31°59' W 080°45'0 0.0
2016-Jul-01 01:33N 31°59' W 080°45'0 0.0
2016-Jul-01 00:14N 31°59' W 080°45'0 0.0
2016-Jun-30 23:33N 31°59' W 080°45'0 0.0
2016-Jun-30 22:33N 31°59' W 080°45'0 0.0
2016-Jun-30 21:33N 31°59' W 080°45'0 0.0
2016-Jun-30 20:33N 31°59' W 080°45'0 0.0
2016-Jun-30 19:33N 31°59' W 080°45'0 0.0
2016-Jun-30 18:33N 31°59' W 080°45'0 0.0
2016-Jun-30 17:33N 31°59' W 080°45'0 0.0
2016-Jun-30 16:32N 31°59' W 080°45'0 0.0
2016-Jun-30 15:32N 31°59' W 080°45'0 0.0
2016-Jun-30 14:33N 31°59' W 080°45'0 0.0
2016-Jun-30 13:33N 31°59' W 080°45'0 0.0
2016-Jun-30 12:23N 31°59' W 080°45'0 0.0
2016-Jun-30 11:23N 31°59' W 080°45'0 0.0
2016-Jun-30 10:29N 31°59' W 080°45'0 0.0
2016-Jun-30 09:17N 31°59' W 080°45'0 0.0
2016-Jun-30 08:29N 31°59' W 080°45'0 0.0
2016-Jun-30 07:23N 31°59' W 080°45'0 0.0
2016-Jun-30 06:11N 31°59' W 080°45'0 0.0
2016-Jun-30 05:29N 31°59' W 080°45'0 0.0
2016-Jun-30 04:29N 31°59' W 080°45'0 0.0
2016-Jun-30 03:23N 31°59' W 080°45'0 0.0
2016-Jun-30 02:29N 31°59' W 080°45'0 0.0
2016-Jun-30 01:29N 31°59' W 080°45'0 0.0
2016-Jun-30 00:29N 31°59' W 080°45'0 0.0
2016-Jun-29 23:29N 31°59' W 080°45'0 0.1
2016-Jun-29 22:29N 31°59' W 080°45'0 0.0
2016-Jun-29 21:17N 31°59' W 080°45'0 0.0
2016-Jun-29 20:23N 31°59' W 080°45'0 0.0
2016-Jun-29 19:23N 31°59' W 080°45'0 0.0
2016-Jun-29 18:05N 31°59' W 080°45'0 0.0
2016-Jun-29 17:29N 31°59' W 080°45'0 0.0
2016-Jun-29 16:23N 31°59' W 080°45'0 0.0
2016-Jun-29 15:23N 31°59' W 080°45'0 0.0
2016-Jun-29 14:17N 31°59' W 080°45'0 0.0
2016-Jun-29 13:29N 31°59' W 080°45'0 0.0
2016-Jun-29 12:11N 31°59' W 080°45'0 0.0
2016-Jun-29 11:29N 31°59' W 080°45'0 0.0
2016-Jun-29 09:17N 31°59' W 080°45'0 0.0
2016-Jun-29 03:29N 31°59' W 080°45'0 0.0
2016-Jun-28 21:17N 31°59' W 080°45'3 4.0
2016-Jun-28 20:33N 32°01' W 080°48'3 3.4
2016-Jun-28 19:33N 32°01' W 080°52'1 0.9
2016-Jun-28 18:29N 32°01' W 080°53'0 0.0
2016-Jun-28 17:29N 32°01' W 080°53'0 0.0
2016-Jun-28 16:29N 32°01' W 080°53'0 0.0
2016-Jun-28 15:29N 32°01' W 080°53'0 0.0
2016-Jun-28 14:23N 32°01' W 080°53'0 0.0
2016-Jun-28 13:29N 32°01' W 080°53'0 0.0
2016-Jun-28 12:29N 32°01' W 080°53'0 0.0
2016-Jun-28 11:29N 32°01' W 080°53'  
2016-Jun-24 19:29N 32°01' W 080°53'0 0.0
2016-Jun-24 17:33N 32°01' W 080°53'2 1.4
2016-Jun-24 16:05N 32°02' W 080°51'0 0.5
2016-Jun-24 15:30N 32°02' W 080°51'0 0.3
2016-Jun-24 14:30N 32°02' W 080°51'3 3.6
2016-Jun-24 13:33N 32°00' W 080°48'4 4.1
2016-Jun-24 12:33N 32°00' W 080°43'5 4.8
2016-Jun-24 11:32N 32°03' W 080°38'4 4.5
2016-Jun-24 10:33N 32°04' W 080°33'128 4.3
2016-Jun-23 04:31N 33°16' W 078°27'96 3.0
2016-Jun-21 20:12N 34°04' W 076°47'  

Dump ship's entire track history